Time;durP1;ratioP1;P1;durP2;ratioP2;P2;SDS_P1;SDS_P2;PMS_P1;PMS_P2;Temp;Humidity;BMP_temperature;BMP_pressure;BME280_temperature;BME280_humidity;BME280_pressure;Samples;Min_cycle;Max_cycle;Signal;HPM_P1;HPM_P2
2021/11/05 00:00:36;;;;;;;13.38;8.48;;;8.00;99.90;;;;;;4982422;28;20037;-82
2021/11/05 00:03:02;;;;;;;11.30;8.57;;;8.00;99.90;;;;;;4977935;28;20037;-82
2021/11/05 00:05:29;;;;;;;10.35;7.82;;;7.90;99.90;;;;;;4945273;28;20121;-82
2021/11/05 00:08:04;;;;;;;10.48;7.80;;;7.90;99.90;;;;;;4961463;28;20064;-82
2021/11/05 00:10:30;;;;;;;10.25;7.28;;;7.90;99.90;;;;;;4961659;28;20471;-83
2021/11/05 00:12:58;;;;;;;9.43;7.28;;;7.90;99.90;;;;;;4995508;28;20026;-85
2021/11/05 00:15:24;;;;;;;10.00;7.20;;;7.90;99.90;;;;;;4977939;28;20034;-83
2021/11/05 00:17:50;;;;;;;9.52;6.80;;;7.80;99.90;;;;;;4961240;28;20394;-83
2021/11/05 00:20:18;;;;;;;7.72;6.22;;;7.80;99.90;;;;;;4977782;28;20018;-83
2021/11/05 00:22:44;;;;;;;7.95;5.35;;;7.70;99.90;;;;;;4994907;28;20104;-83
2021/11/05 00:25:12;;;;;;;6.63;5.55;;;7.70;99.90;;;;;;4977143;28;20019;-83
2021/11/05 00:27:40;;;;;;;7.13;5.65;;;7.70;99.90;;;;;;4976950;28;20030;-82
2021/11/05 00:30:08;;;;;;;7.13;4.68;;;7.60;99.90;;;;;;4961313;28;20118;-82
2021/11/05 00:32:38;;;;;;;7.60;5.20;;;7.60;99.90;;;;;;4962090;28;20034;-82
2021/11/05 00:35:04;;;;;;;6.88;5.30;;;7.60;99.90;;;;;;4976606;28;20109;-82
2021/11/05 00:37:33;;;;;;;7.40;5.43;;;7.50;99.90;;;;;;4993241;28;20030;-82
2021/11/05 00:40:02;;;;;;;6.82;5.30;;;7.50;99.90;;;;;;4992755;28;20030;-82
2021/11/05 00:42:30;;;;;;;7.47;4.65;;;7.50;99.90;;;;;;4994639;28;20019;-83
2021/11/05 00:44:58;;;;;;;6.63;4.80;;;7.50;99.90;;;;;;4976459;28;20042;-83
2021/11/05 00:47:23;;;;;;;7.22;4.72;;;7.40;99.90;;;;;;4993664;28;20046;-82
2021/11/05 00:49:49;;;;;;;8.90;4.90;;;7.40;99.90;;;;;;4961044;28;20172;-82
2021/11/05 00:52:17;;;;;;;7.20;4.88;;;7.40;99.90;;;;;;4960806;28;20460;-82
2021/11/05 00:54:43;;;;;;;6.65;4.70;;;7.40;99.90;;;;;;4960664;28;20117;-82
2021/11/05 00:57:12;;;;;;;8.65;5.43;;;7.50;99.90;;;;;;4973068;28;20145;-82
2021/11/05 00:59:39;;;;;;;7.13;5.10;;;7.40;99.90;;;;;;4972994;28;20038;-82
2021/11/05 01:02:08;;;;;;;8.10;5.50;;;7.40;99.90;;;;;;4973425;28;20502;-82
2021/11/05 01:04:36;;;;;;;9.40;5.65;;;7.40;99.90;;;;;;4989641;28;20026;-83
2021/11/05 01:07:02;;;;;;;7.65;5.43;;;7.40;99.90;;;;;;4973917;28;20479;-81
2021/11/05 01:09:27;;;;;;;9.35;5.60;;;7.40;99.90;;;;;;4972808;28;20109;-83
2021/11/05 01:11:58;;;;;;;6.90;4.80;;;7.40;99.90;;;;;;4989606;28;20054;-82
2021/11/05 01:14:23;;;;;;;7.63;5.10;;;7.40;99.90;;;;;;4989817;28;20023;-82
2021/11/05 01:16:49;;;;;;;7.55;5.25;;;7.40;99.90;;;;;;4973275;28;20103;-82
2021/11/05 01:19:15;;;;;;;9.10;5.25;;;7.40;99.90;;;;;;4973329;28;20093;-82
2021/11/05 01:21:41;;;;;;;7.88;5.25;;;7.40;99.90;;;;;;4989180;28;20077;-82
2021/11/05 01:24:09;;;;;;;7.55;5.63;;;7.40;99.90;;;;;;4989655;28;20117;-82
2021/11/05 01:26:35;;;;;;;8.45;5.53;;;7.40;99.90;;;;;;4973232;28;20027;-82
2021/11/05 01:29:11;;;;;;;7.93;4.78;;;7.40;99.90;;;;;;4973194;28;20023;-82
2021/11/05 01:31:37;;;;;;;7.72;4.90;;;7.40;99.90;;;;;;4989278;28;20472;-82
2021/11/05 01:34:05;;;;;;;8.38;5.18;;;7.40;99.90;;;;;;4973015;28;20034;-83
2021/11/05 01:36:35;;;;;;;9.68;5.55;;;7.40;99.90;;;;;;4972983;28;20019;-82
2021/11/05 01:39:01;;;;;;;7.20;4.72;;;7.40;99.90;;;;;;4989044;28;20034;-83
2021/11/05 01:41:27;;;;;;;7.88;4.90;;;7.30;99.90;;;;;;4989154;28;20027;-82
2021/11/05 01:43:52;;;;;;;6.93;4.93;;;7.30;99.90;;;;;;4972998;28;20379;-82
2021/11/05 01:46:41;;;;;;;6.88;4.30;;;7.30;99.90;;;;;;4973019;28;20409;-82
2021/11/05 01:49:08;;;;;;;7.13;4.68;;;7.30;99.90;;;;;;4988456;28;20034;-82
2021/11/05 01:51:38;;;;;;;8.02;4.53;;;7.30;99.90;;;;;;4975449;28;20041;-82
2021/11/05 01:54:11;;;;;;;6.80;4.22;;;7.20;99.90;;;;;;4993119;28;20112;-82
2021/11/05 01:56:39;;;;;;;7.38;4.38;;;7.20;99.90;;;;;;4978181;28;20058;-82
2021/11/05 01:59:20;;;;;;;5.40;3.90;;;7.20;99.90;;;;;;4996738;28;20101;-82
2021/11/05 02:01:48;;;;;;;;;;;7.20;99.90;;;;;;4979921;28;20047;-83
2021/11/05 02:04:17;;;;;;;12.93;4.20;;;7.10;99.90;;;;;;4980117;28;19913;-82
2021/11/05 02:06:45;;;;;;;5.50;3.83;;;7.10;99.90;;;;;;4979747;28;20031;-83
2021/11/05 02:09:16;;;;;;;7.50;3.85;;;7.10;99.90;;;;;;4980071;28;20027;-82
2021/11/05 02:11:49;;;;;;;6.43;4.13;;;7.00;99.90;;;;;;4996298;28;20431;-82
2021/11/05 02:14:20;;;;;;;7.20;3.95;;;7.00;99.90;;;;;;4964707;28;20359;-82
2021/11/05 02:16:50;;;;;;;6.07;4.15;;;6.90;99.90;;;;;;4979590;28;20065;-82
2021/11/05 02:19:21;;;;;;;5.90;4.28;;;6.90;99.90;;;;;;4979938;28;20062;-82
2021/11/05 02:21:49;;;;;;;5.47;3.65;;;6.90;99.90;;;;;;4997226;28;20030;-82
2021/11/05 02:24:16;;;;;;;7.15;4.03;;;6.90;99.90;;;;;;4996770;28;20471;-82
2021/11/05 02:26:44;;;;;;;8.27;4.63;;;6.90;99.90;;;;;;4995890;28;20042;-82
2021/11/05 02:29:10;;;;;;;6.75;4.25;;;6.80;99.90;;;;;;4963373;28;20030;-83
2021/11/05 02:31:37;;;;;;;7.10;4.30;;;6.90;99.90;;;;;;4963790;28;20478;-82
2021/11/05 02:34:04;;;;;;;9.00;4.50;;;6.80;99.90;;;;;;4979234;28;20029;-82
2021/11/05 02:36:32;;;;;;;6.70;4.18;;;6.80;99.90;;;;;;4978957;28;20076;-84
2021/11/05 02:38:58;;;;;;;6.13;3.33;;;6.80;99.90;;;;;;4963244;28;20027;-81
2021/11/05 02:41:24;;;;;;;5.43;3.47;;;6.80;99.90;;;;;;4963373;28;20088;-82
2021/11/05 02:43:52;;;;;;;5.30;3.60;;;6.80;99.90;;;;;;4995483;28;20030;-82
2021/11/05 02:46:18;;;;;;;5.90;3.55;;;6.90;99.90;;;;;;4963283;28;20049;-82
2021/11/05 02:48:43;;;;;;;7.18;3.35;;;6.80;99.90;;;;;;4963162;28;20031;-82
2021/11/05 02:51:10;;;;;;;4.68;3.13;;;6.80;99.90;;;;;;4963030;28;20027;-82
2021/11/05 02:53:39;;;;;;;7.28;3.30;;;6.80;99.90;;;;;;4978996;28;20023;-83
2021/11/05 02:56:05;;;;;;;7.47;3.08;;;6.90;99.90;;;;;;4978784;28;20081;-82
2021/11/05 02:58:31;;;;;;;6.10;3.28;;;6.90;99.90;;;;;;4978604;28;20252;-82
2021/11/05 03:00:59;;;;;;;4.95;3.10;;;6.90;99.90;;;;;;4996228;28;20027;-82
2021/11/05 03:03:25;;;;;;;9.70;3.63;;;6.90;99.90;;;;;;4961838;28;20417;-82
2021/11/05 03:05:53;;;;;;;5.88;3.40;;;6.90;99.90;;;;;;4963145;28;20039;-82
2021/11/05 03:08:19;;;;;;;4.25;2.80;;;6.90;99.90;;;;;;4978939;28;20030;-82
2021/11/05 03:10:45;;;;;;;5.40;2.88;;;6.90;99.90;;;;;;4979221;28;20089;-82
2021/11/05 03:13:11;;;;;;;5.88;3.10;;;6.90;99.90;;;;;;4962839;28;20109;-82
2021/11/05 03:15:37;;;;;;;6.65;3.08;;;6.80;99.90;;;;;;4947148;28;20459;-82
2021/11/05 03:18:04;;;;;;;5.10;3.00;;;6.80;99.90;;;;;;4982625;28;20481;-83
2021/11/05 03:20:29;;;;;;;6.00;3.30;;;6.80;99.90;;;;;;4975933;28;20037;-83
2021/11/05 03:22:56;;;;;;;5.03;3.05;;;6.80;99.90;;;;;;5013862;28;20030;-84
2021/11/05 03:25:21;;;;;;;3.92;2.63;;;6.70;99.90;;;;;;4992828;28;20058;-82
2021/11/05 03:27:47;;;;;;;4.70;3.00;;;6.80;99.90;;;;;;4973207;28;20093;-83
2021/11/05 03:30:15;;;;;;;5.38;2.50;;;6.70;99.90;;;;;;4972486;28;20022;-82
2021/11/05 03:32:43;;;;;;;5.88;2.80;;;6.70;99.90;;;;;;4981361;28;20015;-82
2021/11/05 03:35:10;;;;;;;4.55;2.85;;;6.70;99.90;;;;;;4978459;28;20024;-82
2021/11/05 03:37:36;;;;;;;5.13;2.55;;;6.70;99.90;;;;;;4994664;28;20422;-83
2021/11/05 03:40:05;;;;;;;6.13;2.97;;;6.60;99.90;;;;;;4978348;28;20086;-82
2021/11/05 03:42:37;;;;;;;3.83;2.58;;;6.60;99.90;;;;;;4994516;28;20489;-83
2021/11/05 03:45:05;;;;;;;;;;;6.60;99.90;;;;;;4978312;28;20029;-83
2021/11/05 03:47:31;;;;;;;4.15;2.65;;;6.60;99.90;;;;;;4995529;28;19949;-83
2021/11/05 03:50:00;;;;;;;5.03;2.67;;;6.60;99.90;;;;;;4962017;28;20450;-84
2021/11/05 03:52:26;;;;;;;3.95;2.47;;;6.50;99.90;;;;;;4962520;28;20022;-83
2021/11/05 03:54:52;;;;;;;4.53;2.50;;;6.50;99.90;;;;;;4977899;28;20080;-83
2021/11/05 03:57:17;;;;;;;5.68;2.60;;;6.50;99.90;;;;;;4961603;28;20042;-84
2021/11/05 03:59:43;;;;;;;2.83;1.98;;;6.50;99.90;;;;;;4961861;28;20034;-83
2021/11/05 04:02:09;;;;;;;3.75;2.35;;;6.50;99.90;;;;;;4977676;28;20429;-83
2021/11/05 04:04:34;;;;;;;4.57;2.08;;;6.50;99.90;;;;;;4961964;28;20092;-82
2021/11/05 04:07:00;;;;;;;4.57;2.30;;;6.40;99.90;;;;;;4977886;28;20038;-82
2021/11/05 04:09:26;;;;;;;4.70;2.25;;;6.40;99.90;;;;;;4977921;28;20027;-83
2021/11/05 04:11:51;;;;;;;4.03;2.42;;;6.50;99.90;;;;;;4945612;28;20027;-82
2021/11/05 04:14:17;;;;;;;5.40;2.60;;;6.40;99.90;;;;;;4977496;28;20022;-83
2021/11/05 04:16:42;;;;;;;3.90;2.10;;;6.40;99.90;;;;;;4977538;28;20050;-82
2021/11/05 04:19:09;;;;;;;4.18;2.40;;;6.40;99.90;;;;;;4961536;28;20136;-82
2021/11/05 04:21:37;;;;;;;5.35;2.67;;;6.40;99.90;;;;;;4945664;28;20053;-83
2021/11/05 04:24:06;;;;;;;7.88;2.72;;;6.40;99.90;;;;;;4961256;28;20034;-83
2021/11/05 04:26:31;;;;;;;4.97;2.70;;;6.40;99.90;;;;;;4993091;28;20092;-83
2021/11/05 04:28:57;;;;;;;6.30;2.72;;;6.50;99.90;;;;;;4961345;28;20471;-82
2021/11/05 04:31:23;;;;;;;4.43;2.55;;;6.50;99.90;;;;;;4993167;28;20170;-83
2021/11/05 04:33:51;;;;;;;4.45;2.60;;;6.50;99.90;;;;;;4977494;28;20062;-82
2021/11/05 04:36:18;;;;;;;5.20;2.85;;;6.50;99.90;;;;;;4961458;28;20558;-83
2021/11/05 04:38:44;;;;;;;3.95;2.53;;;6.50;99.90;;;;;;4977272;28;20033;-83
2021/11/05 04:41:12;;;;;;;4.55;2.60;;;6.40;99.90;;;;;;4994697;28;20074;-82
2021/11/05 04:43:42;;;;;;;4.25;2.95;;;6.50;99.90;;;;;;4961161;28;20029;-83
2021/11/05 04:46:08;;;;;;;7.10;3.80;;;6.40;99.90;;;;;;4976713;28;20041;-82
2021/11/05 04:48:41;;;;;;;4.72;3.15;;;6.50;99.90;;;;;;4977235;28;20027;-83
2021/11/05 04:51:10;;;;;;;5.45;3.15;;;6.50;99.90;;;;;;4994222;28;20041;-83
2021/11/05 04:53:41;;;;;;;8.30;3.67;;;6.50;99.90;;;;;;4977048;28;20030;-82
2021/11/05 04:56:07;;;;;;;7.38;3.97;;;6.50;99.90;;;;;;4993338;28;20033;-82
2021/11/05 04:58:40;;;;;;;6.70;3.67;;;6.50;99.90;;;;;;4994220;28;20050;-82
2021/11/05 05:01:13;;;;;;;9.07;4.40;;;6.50;99.90;;;;;;4961744;28;20065;-84
2021/11/05 05:03:39;;;;;;;7.95;4.22;;;6.50;99.90;;;;;;4976894;28;20368;-82
2021/11/05 05:06:07;;;;;;;6.97;4.60;;;6.50;99.90;;;;;;4976325;28;20037;-83
2021/11/05 05:08:33;;;;;;;6.97;4.65;;;6.50;99.90;;;;;;4961204;28;20022;-82
2021/11/05 05:11:01;;;;;;;8.75;5.05;;;6.50;99.90;;;;;;4977945;28;20117;-82
2021/11/05 05:13:27;;;;;;;7.38;4.55;;;6.40;99.90;;;;;;4976366;28;20019;-82
2021/11/05 05:15:53;;;;;;;7.10;4.65;;;6.40;99.90;;;;;;4978315;28;20042;-82
2021/11/05 05:18:21;;;;;;;7.70;5.07;;;6.50;99.90;;;;;;4961406;28;20034;-82
2021/11/05 05:20:47;;;;;;;7.90;5.15;;;6.40;99.90;;;;;;4961475;28;20475;-82
2021/11/05 05:23:19;;;;;;;7.82;5.57;;;6.40;99.90;;;;;;4945514;28;20023;-83
2021/11/05 05:25:44;;;;;;;14.10;5.57;;;6.40;99.90;;;;;;4978257;28;20387;-83
2021/11/05 05:28:10;;;;;;;8.15;4.80;;;6.50;99.90;;;;;;4996893;28;20038;-82
2021/11/05 05:30:39;;;;;;;7.45;4.97;;;6.40;99.90;;;;;;4998129;28;20029;-83
2021/11/05 05:33:04;;;;;;;8.95;5.22;;;6.40;99.90;;;;;;4997882;28;20035;-83
2021/11/05 05:35:33;;;;;;;7.75;5.38;;;6.40;99.90;;;;;;4964437;28;20060;-83
2021/11/05 05:37:59;;;;;;;8.15;5.05;;;6.40;99.90;;;;;;4964575;28;20034;-83
2021/11/05 05:40:25;;;;;;;7.80;5.25;;;6.50;99.90;;;;;;4980246;28;20026;-82
2021/11/05 05:42:51;;;;;;;6.75;5.05;;;6.50;99.90;;;;;;4980315;28;20030;-83
2021/11/05 05:45:21;;;;;;;8.48;5.43;;;6.50;99.90;;;;;;4980496;28;20105;-84
2021/11/05 05:47:49;;;;;;;7.57;5.35;;;6.50;99.90;;;;;;4980390;28;20077;-83
2021/11/05 05:50:19;;;;;;;10.80;5.53;;;6.50;99.90;;;;;;4980445;28;20079;-83
2021/11/05 05:52:54;;;;;;;7.10;4.78;;;6.50;99.90;;;;;;4997795;28;20113;-83
2021/11/05 05:55:25;;;;;;;7.15;4.70;;;6.50;99.90;;;;;;4979922;28;20022;-83
2021/11/05 05:57:53;;;;;;;7.78;5.13;;;6.40;99.90;;;;;;4978793;28;20462;-83
2021/11/05 06:00:22;;;;;;;7.63;4.60;;;6.40;99.90;;;;;;4978614;28;20038;-83
2021/11/05 06:02:50;;;;;;;6.18;4.72;;;6.40;99.90;;;;;;4979777;28;20117;-82
2021/11/05 06:05:21;;;;;;;5.78;4.35;;;6.40;99.90;;;;;;4981926;28;20026;-83
2021/11/05 06:07:47;;;;;;;6.70;4.78;;;6.40;99.90;;;;;;4980773;28;20417;-83
2021/11/05 06:10:12;;;;;;;7.57;4.57;;;6.40;99.90;;;;;;4963801;28;20027;-82
2021/11/05 06:12:38;;;;;;;6.35;4.72;;;6.50;99.90;;;;;;4979724;28;20493;-82
2021/11/05 06:15:05;;;;;;;7.32;4.18;;;6.50;99.90;;;;;;4995645;28;20414;-83
2021/11/05 06:17:34;;;;;;;7.35;3.85;;;6.40;99.90;;;;;;4979413;28;20273;-82
2021/11/05 06:20:03;;;;;;;5.55;3.90;;;6.40;99.90;;;;;;4979638;28;20022;-83
2021/11/05 06:22:31;;;;;;;5.75;3.88;;;6.50;99.90;;;;;;4979359;28;20050;-82
2021/11/05 06:25:01;;;;;;;5.68;3.60;;;6.50;99.90;;;;;;4997129;28;20027;-83
2021/11/05 06:27:30;;;;;;;6.55;3.53;;;6.50;99.90;;;;;;4979411;28;20089;-83
2021/11/05 06:29:56;;;;;;;5.45;3.70;;;6.50;99.90;;;;;;4979523;28;20019;-83
2021/11/05 06:32:22;;;;;;;10.88;3.30;;;6.50;99.90;;;;;;4979668;28;20018;-83
2021/11/05 06:34:48;;;;;;;4.55;3.20;;;6.50;99.90;;;;;;4995679;28;20027;-83
2021/11/05 06:37:17;;;;;;;4.68;3.20;;;6.50;99.90;;;;;;4979189;28;20029;-84
2021/11/05 06:39:42;;;;;;;9.20;3.45;;;6.50;99.90;;;;;;4978543;28;20452;-85
2021/11/05 06:42:11;;;;;;;4.95;3.30;;;6.50;99.90;;;;;;4996627;28;20037;-83
2021/11/05 06:44:37;;;;;;;5.13;3.38;;;6.50;99.90;;;;;;4979806;28;20023;-83
2021/11/05 06:47:03;;;;;;;10.88;3.40;;;6.50;99.90;;;;;;4980143;28;20478;-83
2021/11/05 06:49:31;;;;;;;5.70;3.38;;;6.50;99.90;;;;;;4997919;28;20090;-82
2021/11/05 06:52:00;;;;;;;6.25;3.60;;;6.50;99.90;;;;;;4975796;28;20036;-83
2021/11/05 06:54:34;;;;;;;4.88;3.17;;;6.50;99.90;;;;;;5000071;28;20019;-83
2021/11/05 06:57:00;;;;;;;6.80;3.20;;;6.50;99.90;;;;;;4998429;28;20038;-83
2021/11/05 06:59:31;;;;;;;4.72;3.10;;;6.50;99.90;;;;;;4989024;28;20033;-84
2021/11/05 07:02:09;;;;;;;;;;;;;;;;;;;;;
2021/11/05 07:04:38;;;;;;;7.85;3.20;;;6.40;99.90;;;;;;4981438;28;20025;-82
2021/11/05 07:07:06;;;;;;;5.30;3.30;;;6.40;99.90;;;;;;4978834;28;20340;-83
2021/11/05 07:09:35;;;;;;;11.63;2.90;;;6.40;99.90;;;;;;4978393;28;20026;-83
2021/11/05 07:12:03;;;;;;;5.25;3.47;;;6.40;99.90;;;;;;4978303;28;20462;-82
2021/11/05 07:14:28;;;;;;;4.63;3.13;;;6.40;99.90;;;;;;4963333;28;20061;-83
2021/11/05 07:16:57;;;;;;;4.40;2.97;;;6.40;99.90;;;;;;4980157;28;20112;-83
2021/11/05 07:19:38;;;;;;;;;;;;;;;;;;;;;
2021/11/05 07:22:06;;;;;;;;;;;6.40;99.90;;;;;;4981786;28;20025;-83
2021/11/05 07:24:39;;;;;;;5.00;3.30;;;6.40;99.90;;;;;;4997113;28;19908;-83
2021/11/05 07:27:10;;;;;;;7.85;3.70;;;6.40;99.90;;;;;;4979019;28;20037;-82
2021/11/05 07:29:43;;;;;;;;;;;6.40;99.90;;;;;;4963829;28;20022;-83
2021/11/05 07:32:09;;;;;;;5.70;3.47;;;6.40;99.90;;;;;;4995342;28;19939;-83
2021/11/05 07:34:48;;;;;;;7.43;3.92;;;6.40;99.90;;;;;;4999748;28;20026;-83
2021/11/05 07:37:26;;;;;;;5.00;3.22;;;6.40;99.90;;;;;;4979851;28;20422;-83
2021/11/05 07:39:52;;;;;;;5.30;3.05;;;6.40;99.90;;;;;;4963183;28;20038;-83
2021/11/05 07:42:38;;;;;;;5.32;3.20;;;6.40;99.90;;;;;;4996887;28;20023;-82
2021/11/05 07:45:16;;;;;;;6.75;3.45;;;6.40;99.90;;;;;;4962010;28;20023;-83
2021/11/05 07:47:48;;;;;;;5.63;3.20;;;6.50;99.90;;;;;;4995005;28;20065;-83
2021/11/05 07:50:32;;;;;;;5.75;3.53;;;6.50;99.90;;;;;;4994895;28;20023;-83
2021/11/05 07:53:11;;;;;;;4.80;3.15;;;6.50;99.90;;;;;;4963845;28;20037;-83
2021/11/05 07:55:49;;;;;;;5.28;3.30;;;6.50;99.90;;;;;;4995091;28;20037;-83
2021/11/05 07:58:30;;;;;;;5.85;3.35;;;6.60;99.90;;;;;;4995165;28;20499;-83
2021/11/05 08:00:56;;;;;;;7.03;3.97;;;6.60;99.90;;;;;;4977128;28;20018;-83
2021/11/05 08:03:24;;;;;;;6.47;3.58;;;6.60;99.90;;;;;;4976909;28;20030;-83
2021/11/05 08:05:57;;;;;;;8.32;3.88;;;6.70;99.90;;;;;;4977616;28;20462;-82
2021/11/05 08:08:40;;;;;;;8.60;4.45;;;6.70;99.90;;;;;;4977893;28;20026;-83
2021/11/05 08:11:15;;;;;;;6.88;3.40;;;6.70;99.90;;;;;;4977948;28;20511;-82
2021/11/05 08:13:51;;;;;;;6.13;3.75;;;6.80;99.90;;;;;;4993776;28;20541;-83
2021/11/05 08:16:22;;;;;;;5.50;3.17;;;6.80;99.90;;;;;;4962259;28;20026;-82
2021/11/05 08:18:53;;;;;;;6.35;3.33;;;6.90;99.90;;;;;;4961672;28;20030;-82
2021/11/05 08:21:24;;;;;;;6.18;3.28;;;6.90;99.90;;;;;;4961350;28;20133;-83
2021/11/05 08:24:05;;;;;;;6.65;3.30;;;7.00;99.90;;;;;;4976988;28;20026;-84
2021/11/05 08:26:34;;;;;;;4.70;3.00;;;7.00;99.90;;;;;;4961126;28;20043;-84
2021/11/05 08:29:04;;;;;;;5.18;3.22;;;7.00;99.90;;;;;;4976897;28;20549;-84
2021/11/05 08:31:40;;;;;;;;;;;;;;;;;;;;;
2021/11/05 08:34:12;;;;;;;6.50;3.30;;;7.10;99.90;;;;;;4994325;28;20060;-83
2021/11/05 08:37:06;;;;;;;;;;;;;;;;;;;;;
2021/11/05 08:39:41;;;;;;;5.63;3.28;;;7.20;99.90;;;;;;4994235;28;20032;-83
2021/11/05 08:42:38;;;;;;;;;;;;;;;;;;;;;
2021/11/05 08:45:08;;;;;;;8.60;3.80;;;7.30;99.90;;;;;;4994130;28;20389;-83
2021/11/05 08:47:54;;;;;;;6.53;3.83;;;7.40;99.90;;;;;;4960789;28;20431;-84
2021/11/05 08:50:36;;;;;;;7.95;3.80;;;7.40;99.90;;;;;;4961010;28;20030;-84
2021/11/05 08:53:07;;;;;;;7.82;3.67;;;7.50;99.90;;;;;;4977111;28;20423;-84
2021/11/05 08:55:33;;;;;;;5.63;3.20;;;7.50;99.90;;;;;;4976618;28;20037;-85
2021/11/05 08:58:12;;;;;;;5.72;3.03;;;7.60;99.90;;;;;;4993777;28;20054;-84
2021/11/05 09:00:47;;;;;;;7.38;3.40;;;7.60;99.90;;;;;;4961532;28;20081;-84
2021/11/05 09:03:24;;;;;;;7.28;3.78;;;7.70;99.90;;;;;;4960979;28;20030;-84
2021/11/05 09:05:53;;;;;;;6.63;3.53;;;7.80;99.90;;;;;;4961273;28;20084;-83
2021/11/05 09:08:21;;;;;;;5.60;3.20;;;7.80;99.90;;;;;;4992770;28;20423;-84
2021/11/05 09:10:57;;;;;;;5.32;3.03;;;7.90;99.90;;;;;;4960354;28;20085;-84
2021/11/05 09:13:42;;;;;;;4.95;2.80;;;7.90;99.90;;;;;;4976622;28;20037;-85
2021/11/05 09:16:41;;;;;;;;;;;;;;;;;;;;;
2021/11/05 09:19:38;;;;;;;6.25;2.88;;;8.10;99.90;;;;;;4978755;28;20038;-85
2021/11/05 09:22:18;;;;;;;8.30;3.25;;;8.20;99.90;;;;;;4962732;28;20038;-85
2021/11/05 09:25:01;;;;;;;5.22;2.72;;;8.20;99.90;;;;;;4976207;28;20026;-84
2021/11/05 09:27:35;;;;;;;8.95;3.40;;;8.30;99.90;;;;;;4975973;28;20038;-84
2021/11/05 09:36:45;;;;;;;5.05;3.17;;;8.60;99.90;;;;;;4965658;28;20061;-83
2021/11/05 09:39:11;;;;;;;9.98;4.00;;;8.70;99.90;;;;;;4959912;28;20027;-84
2021/11/05 09:41:36;;;;;;;7.93;3.88;;;8.70;99.90;;;;;;4975024;28;20030;-84
2021/11/05 09:44:02;;;;;;;6.57;3.10;;;8.80;99.90;;;;;;4942685;28;20022;-83
2021/11/05 09:46:29;;;;;;;7.65;3.63;;;8.90;99.90;;;;;;4975658;28;20085;-82
2021/11/05 09:49:01;;;;;;;5.68;3.08;;;8.90;99.90;;;;;;4975988;28;20463;-83
2021/11/05 09:51:31;;;;;;;9.20;3.95;;;9.00;99.90;;;;;;4975663;28;20030;-83
2021/11/05 09:54:17;;;;;;;9.18;3.80;;;9.10;99.90;;;;;;4993739;28;20077;-83
2021/11/05 09:56:44;;;;;;;6.35;3.28;;;9.20;99.90;;;;;;4976132;28;20074;-83
2021/11/05 09:59:21;;;;;;;7.22;3.22;;;9.30;99.90;;;;;;4976171;28;20050;-83
2021/11/05 10:01:46;;;;;;;7.55;4.00;;;9.40;99.90;;;;;;4961173;28;20420;-83
2021/11/05 10:04:15;;;;;;;7.32;3.85;;;9.50;99.90;;;;;;4975955;28;20029;-84
2021/11/05 10:06:59;;;;;;;7.63;3.80;;;9.50;99.90;;;;;;4976063;28;20038;-83
2021/11/05 10:09:46;;;;;;;7.03;3.53;;;9.60;99.90;;;;;;4992500;28;20499;-84
2021/11/05 10:15:08;;;;;;;5.47;3.00;;;9.80;99.90;;;;;;4985249;28;20034;-84
2021/11/05 10:17:48;;;;;;;5.68;2.83;;;9.80;99.90;;;;;;4967705;28;20506;-86
2021/11/05 10:20:25;;;;;;;4.65;2.88;;;9.90;99.90;;;;;;4988048;28;20022;-84
2021/11/05 10:23:02;;;;;;;7.50;3.55;;;9.90;99.90;;;;;;4968373;28;20170;-84
2021/11/05 10:25:57;;;;;;;5.78;3.20;;;10.00;99.90;;;;;;4982931;28;20015;-87
2021/11/05 10:28:58;;;;;;;;;;;;;;;;;;;;;
2021/11/05 10:31:39;;;;;;;5.35;3.22;;;10.30;99.90;;;;;;4997258;28;20022;-87
2021/11/05 10:34:16;;;;;;;10.95;3.65;;;10.30;99.90;;;;;;4964057;28;20378;-85
2021/11/05 10:37:12;;;;;;;9.45;4.07;;;10.40;99.90;;;;;;4979482;28;20046;-87
2021/11/05 10:46:29;;;;;;;6.65;3.00;;;10.80;99.90;;;;;;4955115;28;20483;-83
2021/11/05 10:49:07;;;;;;;9.60;4.22;;;10.90;99.90;;;;;;4939561;29;20074;-83
2021/11/05 10:52:13;;;;;;;11.13;3.65;;;11.00;99.90;;;;;;4938973;29;20495;-83
2021/11/05 10:55:18;;;;;;;9.48;3.80;;;11.10;99.90;;;;;;4954997;29;20452;-86
2021/11/05 10:58:13;;;;;;;;;;;;;;;;;;;;;
2021/11/05 11:00:48;;;;;;;8.20;3.75;;;11.30;99.90;;;;;;4955109;29;20034;-82
2021/11/05 11:03:30;;;;;;;;;;;;;;;;;;;;;
2021/11/05 11:06:01;;;;;;;6.43;3.20;;;11.50;99.90;;;;;;4958582;28;20061;-83
2021/11/05 11:08:41;;;;;;;9.48;3.03;;;11.70;99.90;;;;;;4995291;28;20053;-83
2021/11/05 11:11:31;;;;;;;6.45;2.80;;;11.80;99.90;;;;;;4978837;28;20023;-83
2021/11/05 11:14:29;;;;;;;5.68;2.40;;;11.90;99.90;;;;;;4996280;28;20459;-83
2021/11/05 11:17:06;;;;;;;7.85;2.97;;;12.00;99.90;;;;;;4973785;28;20038;-83
2021/11/05 11:19:47;;;;;;;;;;;;;;;;;;;;;
2021/11/05 11:22:29;;;;;;;8.15;2.70;;;12.30;99.90;;;;;;4996530;28;20026;-82
2021/11/05 11:25:02;;;;;;;6.85;2.47;;;12.30;99.90;;;;;;4977961;28;20050;-83
2021/11/05 11:27:31;;;;;;;5.28;2.97;;;12.50;99.90;;;;;;4979194;28;20494;-83
2021/11/05 11:30:22;;;;;;;4.50;2.55;;;12.60;99.90;;;;;;4978610;28;20387;-83
2021/11/05 11:33:03;;;;;;;6.25;2.30;;;12.70;99.90;;;;;;4963879;28;20130;-83
2021/11/05 11:35:42;;;;;;;6.65;2.65;;;12.80;99.90;;;;;;4994991;28;20423;-82
2021/11/05 11:38:15;;;;;;;6.40;2.47;;;12.90;99.90;;;;;;4964391;28;20038;-83
2021/11/05 11:40:53;;;;;;;5.63;1.80;;;13.00;99.90;;;;;;4978455;28;20134;-83
2021/11/05 11:43:37;;;;;;;;;;;;;;;;;;;;;
2021/11/05 11:46:10;;;;;;;5.28;1.98;;;13.20;99.90;;;;;;4979815;28;20030;-84
2021/11/05 11:48:45;;;;;;;6.82;2.03;;;13.30;99.90;;;;;;4962130;28;20040;-83
2021/11/05 11:51:43;;;;;;;4.70;1.70;;;13.40;99.90;;;;;;4977922;28;20024;-83
2021/11/05 11:54:26;;;;;;;5.75;1.33;;;13.50;99.90;;;;;;4978118;28;20120;-83
2021/11/05 11:57:18;;;;;;;3.08;1.77;;;13.50;99.90;;;;;;4995396;28;20129;-83
2021/11/05 12:00:04;;;;;;;4.32;1.50;;;13.60;99.90;;;;;;4978079;28;20049;-85
2021/11/05 12:02:43;;;;;;;3.65;1.33;;;13.60;99.90;;;;;;4992939;28;20022;-84
2021/11/05 12:05:20;;;;;;;7.00;1.60;;;13.70;99.90;;;;;;4990138;28;20466;-83
2021/11/05 12:08:12;;;;;;;5.05;1.40;;;13.70;99.90;;;;;;4992549;28;20035;-83
2021/11/05 12:10:41;;;;;;;4.22;1.63;;;13.70;99.90;;;;;;4977496;28;20058;-82
2021/11/05 12:13:41;;;;;;;3.67;1.60;;;13.80;99.90;;;;;;4977790;28;20065;-82
2021/11/05 12:16:13;;;;;;;4.35;1.10;;;13.80;99.90;;;;;;4994921;28;20030;-82
2021/11/05 12:18:56;;;;;;;5.53;1.00;;;13.80;99.90;;;;;;4993777;28;20033;-81
2021/11/05 12:21:34;;;;;;;4.35;1.25;;;13.80;99.90;;;;;;4994002;28;20022;-82
2021/11/05 12:24:32;;;;;;;5.20;1.20;;;13.80;99.90;;;;;;4977641;28;20018;-82
2021/11/05 12:27:05;;;;;;;2.00;0.82;;;13.90;99.90;;;;;;4965484;28;20141;-83
2021/11/05 12:29:37;;;;;;;5.28;1.23;;;13.90;99.90;;;;;;4993802;28;20037;-82
2021/11/05 12:32:17;;;;;;;3.88;1.02;;;13.90;99.90;;;;;;4994784;28;20031;-83
2021/11/05 12:34:56;;;;;;;7.53;1.55;;;13.90;99.90;;;;;;4993587;28;20034;-82
2021/11/05 12:37:32;;;;;;;3.88;1.00;;;13.90;99.90;;;;;;4993608;28;20026;-82
2021/11/05 12:40:26;;;;;;;6.45;1.25;;;13.90;99.90;;;;;;4993566;28;20027;-82
2021/11/05 12:42:56;;;;;;;4.25;0.88;;;14.00;99.90;;;;;;4975299;28;20061;-83
2021/11/05 12:45:52;;;;;;;;;;;;;;;;;;;;;
2021/11/05 12:48:43;;;;;;;6.38;1.00;;;14.00;99.90;;;;;;4981384;28;20038;-82
2021/11/05 12:51:34;;;;;;;5.03;1.13;;;14.10;99.90;;;;;;4994287;28;20026;-83
2021/11/05 12:54:30;;;;;;;6.10;1.00;;;14.00;99.90;;;;;;4993423;28;20015;-82
2021/11/05 12:56:59;;;;;;;5.85;0.90;;;14.00;99.90;;;;;;4976979;28;20398;-83
2021/11/05 12:59:31;;;;;;;1.67;0.55;;;14.10;99.90;;;;;;4976950;28;20352;-83
2021/11/05 13:02:04;;;;;;;1.48;0.50;;;14.10;99.90;;;;;;4994237;28;20032;-83
2021/11/05 13:04:49;;;;;;;3.05;0.65;;;14.10;99.90;;;;;;4976874;28;20426;-84
2021/11/05 13:07:20;;;;;;;2.30;0.50;;;14.10;99.90;;;;;;4976650;28;20471;-83
2021/11/05 13:09:48;;;;;;;3.10;0.43;;;14.10;99.90;;;;;;4994988;28;20031;-83
2021/11/05 13:12:19;;;;;;;3.50;0.60;;;14.10;99.90;;;;;;4977059;28;20027;-83
2021/11/05 13:15:15;;;;;;;2.10;0.40;;;14.10;99.90;;;;;;4977099;28;20479;-83
2021/11/05 13:18:07;;;;;;;1.92;0.57;;;14.10;99.80;;;;;;4992665;28;20030;-87
2021/11/05 13:20:40;;;;;;;1.63;0.60;;;14.10;99.80;;;;;;4979045;28;20031;-83
2021/11/05 13:23:26;;;;;;;;;;;;;;;;;;;;;
2021/11/05 13:26:05;;;;;;;;;;;;;;;;;;;;;
2021/11/05 13:28:34;;;;;;;3.08;0.93;;;14.10;99.60;;;;;;4977925;28;20038;-83
2021/11/05 13:31:10;;;;;;;1.83;0.85;;;14.20;99.70;;;;;;4976443;28;20044;-82
2021/11/05 13:33:39;;;;;;;2.47;0.70;;;14.20;99.60;;;;;;4976465;28;20061;-82
2021/11/05 13:36:09;;;;;;;3.10;0.70;;;14.20;99.50;;;;;;4976341;28;20023;-83
2021/11/05 13:38:47;;;;;;;4.28;0.57;;;14.20;99.50;;;;;;4976926;28;20026;-84
2021/11/05 13:41:22;;;;;;;1.23;0.43;;;14.20;99.30;;;;;;4977812;28;20419;-83
2021/11/05 13:43:54;;;;;;;2.60;0.60;;;14.30;99.10;;;;;;4984833;28;20046;-83
2021/11/05 13:46:29;;;;;;;2.63;0.50;;;14.30;99.20;;;;;;4990023;28;20062;-83
2021/11/05 13:49:28;;;;;;;1.30;0.40;;;14.30;99.00;;;;;;4979108;28;20050;-87
2021/11/05 13:52:02;;;;;;;2.70;0.70;;;14.30;99.10;;;;;;4971938;28;20490;-84
2021/11/05 13:54:40;;;;;;;4.80;0.50;;;14.30;99.00;;;;;;4988061;28;20022;-82